Weather at Puerto Adolfo López Mateos Airstrip

Public forecast

Using degrees Celsius for public forecast. Weather courtesy of forecast.io.

Closest aviation weather report (METAR) to Puerto Adolfo López Mateos Airstrip

Report is more than 2 hours old.

Closest report is Loreto International Airport, 63.1 nm (116.9 km) NE.

2024/06/23 01:40 (retrieved 4 hours ago)

MMLT 230140Z 16010KT 8SM OVC240 29/24 A2974 RMK 8/006 HZY

Closest aviation forecast (TAF) to Puerto Adolfo López Mateos Airstrip

Forecast is more than 6 hours old.

Closest forecast is Loreto International Airport, 63.1 nm (116.9 km) NE.

2024/06/22 18:20 (retrieved 11 hours ago)

TAF MMLT 221713Z 2218/2318 16015KT P6SM SCT240 FM230300 00000KT P6SM SCT120 FM231200 15005KT P6SM SCT030 SCT240